Endicott, WA (99125)

7:20 PM PDT on September 21, 2014 (GMT -0700)
Winona-Silk Stocking Road | Change Station
CLOSE
Current Station
Personal Weather Station
Location: Endicott, WA
Elevation: 1483 ft
Nearby Weather Stations

Elev 1483 ft 46.94 °N, 117.80 °W | Updated 2 seconds ago

Partly Cloudy
Partly Cloudy
73.4 °F
Feels Like 76 °F
N
3.6
Wind Variable Wind from SE
Gusts 4.0 mph

Today
High -- | Low -- °F
--% Chance of Precip.
Yesterday
High -- | Low -- °F
Precip. -- in
6:36 AM 6:50 PM
Waning Crescent, 4% visible
Pressure 29.89 in
Visibility 10.0 miles
Clouds Clear
Heat Index 76 °F
Dew Point 38 °F
Humidity 28%
Rainfall 0.00 in
Snow Depth 0 in , 0 in , 0 in
UV 0 out of 12
Pollen 7.90 out of 12
Air Quality Not available.
Flu Activity Not available.
METAR KPUW 220153Z AUTO 27003KT 10SM CLR 25/03 A2993 RMK AO2 SLP122 T02500033

More Conditions Fewer Conditions

Pressure 29.89 in
Visibility 10.0 miles
Clouds Clear
Heat Index 76 °F
Dew Point 38 °F
Humidity 28%
Rainfall 0.00 in
Snow Depth 0 in , 0 in , 0 in
UV 0 out of 12
Pollen 7.90 out of 12
Air Quality Not available.
Flu Activity Not available.
METAR KPUW 220153Z AUTO 27003KT 10SM CLR 25/03 A2993 RMK AO2 SLP122 T02500033

More Conditions Fewer Conditions

10-Day Weather Forecast

Almanac

Astronomy

Sep. 21, 2014 Rise Set
Actual Time 6:36 AM PDT 6:50 PM PDT
Civil Twilight 6:06 AM PDT 7:20 PM PDT
Nautical Twilight 5:30 AM PDT 7:56 PM PDT
Astronomical Twilight 4:53 AM PDT 8:33 PM PDT
Moon 4:07 AM PDT (9/21) 5:34 PM PDT (9/21)
Length of Visible Light 13h 14m
Length of Day
12h 13m
Tomorrow will be 3m 20s shorter.
Waning Crescent, 4% of the Moon is Illuminated
Today
Waning Crescent
Sep 24
New
Oct 1
First Quarter
Oct 8
Full
Oct 15
Last Quarter

Today's Extremes

State Highs State Lows

Community

WunderPhotos

Upload Photos

1,755,347 photos uploaded!

WunderBlogs® & News

Nearby

Snow Depth

Station Depth Elevation
Touchet 0 in 5530 ft
Rainy Pass 0 in 4780 ft
Meadows Pass 0 in 3500 ft
Spencer Meadow 0 in 3400 ft
Quartz Peak 0 in 4700 ft

Earthquake Activity

City Distance Mag. Time & Date
No recent earthquake activity has been reported nearby.
Minimum magnitude displayed is 2.5.

Coastal Water Temperatures

Place Temperature
No Stations Reporting

Nearby Weather Stations